Time;durP1;ratioP1;P1;durP2;ratioP2;P2;SDS_P1;SDS_P2;PMS_P1;PMS_P2;Temp;Humidity;BMP_temperature;BMP_pressure;BME280_temperature;BME280_humidity;BME280_pressure;Samples;Min_cycle;Max_cycle;Signal;HPM_P1;HPM_P2
2022/11/26 00:02:23;;;;;;;0.15;0.15;;;2.40;99.90;;;;;;5048173;28;20421;-76
2022/11/26 00:04:51;;;;;;;0.30;0.30;;;2.30;99.90;;;;;;5043976;28;20440;-76
2022/11/26 00:07:25;;;;;;;0.40;0.40;;;2.30;99.90;;;;;;5042063;28;20458;-75
2022/11/26 00:09:53;;;;;;;0.40;0.40;;;2.30;99.90;;;;;;5044615;28;20486;-76
2022/11/26 00:12:23;;;;;;;0.20;0.20;;;2.30;99.90;;;;;;5042885;28;20437;-75
2022/11/26 00:14:50;;;;;;;0.20;0.20;;;2.30;99.90;;;;;;5067917;28;20427;-76
2022/11/26 00:17:18;;;;;;;0.50;0.40;;;2.30;99.90;;;;;;5046200;28;20435;-76
2022/11/26 00:19:47;;;;;;;0.40;0.40;;;2.20;99.90;;;;;;5044238;28;20510;-75
2022/11/26 00:22:29;;;;;;;0.20;0.20;;;2.10;99.90;;;;;;5042758;28;20437;-75
2022/11/26 00:24:59;;;;;;;0.17;0.17;;;2.10;99.90;;;;;;5043316;28;20428;-76
2022/11/26 00:27:27;;;;;;;4.70;0.50;;;2.10;99.90;;;;;;5034969;28;20448;-75
2022/11/26 00:29:54;;;;;;;2.60;0.30;;;2.10;99.90;;;;;;5041136;28;20439;-75
2022/11/26 00:32:25;;;;;;;0.20;0.20;;;2.10;99.90;;;;;;5039259;28;20516;-76
2022/11/26 00:34:52;;;;;;;0.22;0.22;;;2.10;99.90;;;;;;5042107;28;20438;-75
2022/11/26 00:37:27;;;;;;;0.30;0.30;;;2.10;99.90;;;;;;5047719;28;20443;-75
2022/11/26 00:39:56;;;;;;;0.30;0.30;;;2.00;99.90;;;;;;5042630;28;20433;-76
2022/11/26 00:42:23;;;;;;;0.30;0.30;;;2.00;99.90;;;;;;5048657;28;20448;-76
2022/11/26 00:44:52;;;;;;;2.20;0.30;;;2.10;99.90;;;;;;5041434;28;20433;-75
2022/11/26 00:47:19;;;;;;;0.40;0.35;;;2.10;99.90;;;;;;5043714;28;20459;-76
2022/11/26 00:49:45;;;;;;;1.30;0.70;;;2.20;99.90;;;;;;5044966;28;20433;-76
2022/11/26 00:52:26;;;;;;;0.13;0.13;;;2.20;99.90;;;;;;5047322;28;20431;-76
2022/11/26 00:54:53;;;;;;;0.30;0.30;;;2.20;99.90;;;;;;5042510;28;20934;-75
2022/11/26 00:57:20;;;;;;;0.30;0.30;;;2.10;99.90;;;;;;5044109;28;20443;-77
2022/11/26 00:59:46;;;;;;;0.25;0.25;;;2.00;99.90;;;;;;5041114;28;21135;-76
2022/11/26 01:02:16;;;;;;;0.50;0.47;;;1.90;99.90;;;;;;5043314;28;20433;-76
2022/11/26 01:04:43;;;;;;;0.93;0.80;;;1.90;99.90;;;;;;5043376;28;20444;-75
2022/11/26 01:07:10;;;;;;;0.25;0.25;;;1.90;99.90;;;;;;5046568;28;20475;-76
2022/11/26 01:09:37;;;;;;;0.20;0.20;;;1.80;99.90;;;;;;5045486;28;20433;-76
2022/11/26 01:12:11;;;;;;;0.30;0.30;;;1.70;99.90;;;;;;5045495;28;21114;-76
2022/11/26 01:14:38;;;;;;;1.00;0.30;;;1.70;99.90;;;;;;5038579;28;20454;-75
2022/11/26 01:17:10;;;;;;;0.35;0.35;;;1.60;99.90;;;;;;5050001;28;20463;-75
2022/11/26 01:19:36;;;;;;;0.23;0.23;;;1.60;99.90;;;;;;5033028;28;20434;-76
2022/11/26 01:22:03;;;;;;;0.40;0.40;;;1.50;99.90;;;;;;5046426;28;20471;-75
2022/11/26 01:24:30;;;;;;;0.50;0.50;;;1.50;99.90;;;;;;5042198;28;20451;-76
2022/11/26 01:26:59;;;;;;;0.40;0.40;;;1.40;99.90;;;;;;5041153;28;20939;-76
2022/11/26 01:29:26;;;;;;;1.00;0.40;;;1.40;99.90;;;;;;5039912;28;20426;-76
2022/11/26 01:31:52;;;;;;;0.47;0.47;;;1.40;99.90;;;;;;5037343;28;20434;-76
2022/11/26 01:34:19;;;;;;;0.30;0.30;;;1.30;99.90;;;;;;5042608;28;20915;-76
2022/11/26 01:36:46;;;;;;;0.20;0.20;;;1.20;99.90;;;;;;5045006;28;20804;-76
2022/11/26 01:39:16;;;;;;;0.50;0.45;;;1.00;99.90;;;;;;5037362;28;21129;-76
2022/11/26 01:42:04;;;;;;;0.17;0.17;;;0.90;99.90;;;;;;5049722;28;20500;-76
2022/11/26 01:44:32;;;;;;;1.13;0.68;;;1.00;99.90;;;;;;5041982;28;20440;-76
2022/11/26 01:47:22;;;;;;;0.20;0.20;;;1.00;99.90;;;;;;5040494;28;20485;-76
2022/11/26 01:50:26;;;;;;;1.80;0.40;;;1.00;99.90;;;;;;5042296;28;21098;-76
2022/11/26 01:53:27;;;;;;;0.38;0.38;;;1.20;99.90;;;;;;5043791;28;20524;-76
2022/11/26 01:55:58;;;;;;;0.30;0.20;;;1.20;99.90;;;;;;5052603;28;20436;-76
2022/11/26 01:58:32;;;;;;;0.50;0.50;;;1.10;99.90;;;;;;5044825;28;20425;-76
2022/11/26 02:01:05;;;;;;;0.10;0.10;;;1.10;99.90;;;;;;5042752;28;20441;-76
2022/11/26 02:03:38;;;;;;;0.40;0.30;;;1.10;99.90;;;;;;5041195;28;20436;-76
2022/11/26 02:06:10;;;;;;;0.50;0.45;;;1.10;99.90;;;;;;5041352;28;20915;-76
2022/11/26 02:08:37;;;;;;;0.80;0.40;;;1.00;99.90;;;;;;5045293;28;20849;-76
2022/11/26 02:11:17;;;;;;;0.15;0.15;;;1.00;99.90;;;;;;5040039;28;20754;-76
2022/11/26 02:13:52;;;;;;;0.20;0.20;;;0.90;99.90;;;;;;5039891;28;20459;-77
2022/11/26 02:16:36;;;;;;;0.30;0.30;;;0.80;99.90;;;;;;5032502;28;20465;-76
2022/11/26 02:19:31;;;;;;;0.20;0.20;;;0.80;99.90;;;;;;5035555;28;20424;-76
2022/11/26 02:22:24;;;;;;;0.30;0.20;;;0.70;99.90;;;;;;5046443;28;20515;-76
2022/11/26 02:24:54;;;;;;;0.70;0.40;;;0.70;99.90;;;;;;5045485;28;20794;-76
2022/11/26 02:27:23;;;;;;;0.28;0.28;;;0.60;99.90;;;;;;5043255;28;20432;-76
2022/11/26 02:30:01;;;;;;;0.30;0.30;;;0.60;99.90;;;;;;5045590;28;20566;-76
2022/11/26 02:32:57;;;;;;;0.40;0.40;;;0.70;99.90;;;;;;5042714;28;20440;-76
2022/11/26 02:35:32;;;;;;;0.20;0.20;;;0.70;99.90;;;;;;5033390;28;20958;-76
2022/11/26 02:38:08;;;;;;;0.63;0.43;;;0.90;99.90;;;;;;5056964;28;20483;-76
2022/11/26 02:40:35;;;;;;;0.28;0.28;;;1.20;99.90;;;;;;5037728;28;20459;-76
2022/11/26 02:43:02;;;;;;;0.60;0.50;;;1.40;99.90;;;;;;5041462;28;20431;-76
2022/11/26 02:45:37;;;;;;;0.20;0.20;;;1.60;99.90;;;;;;5041141;28;20460;-76
2022/11/26 02:48:10;;;;;;;0.60;0.40;;;1.80;99.90;;;;;;5048348;28;20436;-76
2022/11/26 02:50:46;;;;;;;0.20;0.20;;;1.80;99.90;;;;;;5040198;28;20444;-76
2022/11/26 02:53:16;;;;;;;0.60;0.35;;;1.90;99.90;;;;;;5041638;28;20468;-76
2022/11/26 02:55:47;;;;;;;0.20;0.20;;;2.00;99.90;;;;;;5046859;28;20581;-76
2022/11/26 02:58:15;;;;;;;0.20;0.20;;;1.90;99.90;;;;;;5041111;28;20534;-76
2022/11/26 03:00:43;;;;;;;1.20;0.50;;;1.80;99.90;;;;;;5035863;28;20433;-76
2022/11/26 03:03:22;;;;;;;0.90;0.52;;;1.80;99.90;;;;;;5039441;28;20780;-76
2022/11/26 03:05:53;;;;;;;3.10;0.30;;;1.70;99.90;;;;;;5033713;28;20429;-76
2022/11/26 03:08:21;;;;;;;0.40;0.40;;;1.60;99.90;;;;;;5040838;28;20437;-76
2022/11/26 03:10:49;;;;;;;0.53;0.53;;;1.50;99.90;;;;;;5037313;28;20861;-76
2022/11/26 03:13:18;;;;;;;2.00;0.70;;;1.30;99.90;;;;;;5041987;28;20532;-76
2022/11/26 03:15:45;;;;;;;0.20;0.20;;;1.20;99.90;;;;;;5039022;28;20433;-76
2022/11/26 03:18:12;;;;;;;0.50;0.50;;;1.10;99.90;;;;;;5039862;28;20475;-76
2022/11/26 03:20:39;;;;;;;0.20;0.20;;;1.20;99.90;;;;;;5045674;28;20440;-76
2022/11/26 03:23:05;;;;;;;0.17;0.17;;;1.10;99.90;;;;;;5048175;28;20436;-76
2022/11/26 03:25:33;;;;;;;0.20;0.20;;;1.10;99.90;;;;;;5045448;28;20463;-76
2022/11/26 03:28:02;;;;;;;0.28;0.28;;;1.20;99.90;;;;;;5046329;28;20950;-76
2022/11/26 03:30:29;;;;;;;0.95;0.95;;;1.30;99.90;;;;;;5042886;28;20943;-76
2022/11/26 03:32:55;;;;;;;0.50;0.40;;;1.20;99.90;;;;;;5041157;28;20438;-76
2022/11/26 03:35:22;;;;;;;0.35;0.35;;;1.20;99.90;;;;;;5043435;28;20434;-76
2022/11/26 03:37:52;;;;;;;0.52;0.52;;;1.10;99.90;;;;;;5038020;28;20925;-76
2022/11/26 03:40:19;;;;;;;0.40;0.40;;;1.00;99.90;;;;;;5047108;28;20425;-76
2022/11/26 03:42:48;;;;;;;0.20;0.20;;;0.90;99.90;;;;;;5041579;28;20433;-76
2022/11/26 03:45:15;;;;;;;0.50;0.50;;;0.90;99.90;;;;;;5040760;28;20432;-77
2022/11/26 03:47:44;;;;;;;0.30;0.30;;;0.90;99.90;;;;;;5041755;28;20480;-76
2022/11/26 03:50:11;;;;;;;0.50;0.40;;;0.90;99.90;;;;;;5047926;28;21160;-77
2022/11/26 03:52:38;;;;;;;0.20;0.20;;;0.90;99.90;;;;;;5045517;28;20433;-76
2022/11/26 03:55:05;;;;;;;0.20;0.20;;;1.10;99.90;;;;;;5042981;28;20473;-76
2022/11/26 03:57:35;;;;;;;0.65;0.65;;;1.10;99.90;;;;;;5043959;28;20492;-76
2022/11/26 04:00:05;;;;;;;0.60;0.60;;;1.20;99.90;;;;;;5043292;28;20429;-76
2022/11/26 04:02:32;;;;;;;0.90;0.70;;;1.20;99.90;;;;;;5043107;28;21105;-76
2022/11/26 04:05:05;;;;;;;1.50;0.40;;;1.10;99.90;;;;;;5044551;28;20418;-76
2022/11/26 04:07:34;;;;;;;1.95;0.57;;;1.00;99.90;;;;;;5045564;28;20425;-76
2022/11/26 04:10:05;;;;;;;0.30;0.30;;;1.00;99.90;;;;;;5043541;28;20484;-76
2022/11/26 04:12:31;;;;;;;0.32;0.30;;;0.90;99.90;;;;;;5048604;28;20430;-76
2022/11/26 04:14:58;;;;;;;2.15;0.60;;;0.70;99.90;;;;;;5042193;28;21103;-76
2022/11/26 04:17:25;;;;;;;0.43;0.43;;;0.80;99.90;;;;;;5038449;28;20505;-76
2022/11/26 04:19:54;;;;;;;0.20;0.20;;;0.90;99.90;;;;;;5041053;28;20462;-76
2022/11/26 04:22:23;;;;;;;0.77;0.40;;;0.90;99.90;;;;;;5047053;28;20433;-75
2022/11/26 04:24:50;;;;;;;0.57;0.45;;;0.80;99.90;;;;;;5047654;28;20503;-75
2022/11/26 04:27:17;;;;;;;1.40;0.65;;;0.70;99.90;;;;;;5048552;28;20508;-75
2022/11/26 04:29:43;;;;;;;15.40;0.95;;;0.60;99.90;;;;;;5050774;28;20436;-75
2022/11/26 04:32:10;;;;;;;2.10;0.60;;;0.60;99.90;;;;;;5046610;28;20437;-75
2022/11/26 04:34:37;;;;;;;0.30;0.30;;;0.60;99.90;;;;;;5046885;28;20434;-75
2022/11/26 04:37:04;;;;;;;1.10;0.50;;;0.50;99.90;;;;;;5041614;28;20425;-75
2022/11/26 04:39:31;;;;;;;0.70;0.50;;;0.60;99.90;;;;;;5048401;28;20508;-75
2022/11/26 04:41:58;;;;;;;1.02;0.45;;;0.60;99.90;;;;;;5040357;28;20774;-75
2022/11/26 04:44:25;;;;;;;0.45;0.40;;;0.70;99.90;;;;;;5040063;28;20453;-75
2022/11/26 04:46:51;;;;;;;0.30;0.30;;;0.70;99.90;;;;;;5040183;28;20439;-75
2022/11/26 04:49:18;;;;;;;1.00;0.80;;;0.60;99.90;;;;;;5042286;28;20470;-75
2022/11/26 04:51:45;;;;;;;1.25;0.55;;;0.60;99.90;;;;;;5040154;28;20945;-75
2022/11/26 04:54:12;;;;;;;4.40;1.08;;;0.60;99.90;;;;;;5039635;28;20452;-75
2022/11/26 04:56:39;;;;;;;0.30;0.30;;;0.60;99.90;;;;;;5038911;28;20429;-75
2022/11/26 04:59:06;;;;;;;0.60;0.60;;;0.60;99.90;;;;;;5048698;28;20507;-75
2022/11/26 05:01:32;;;;;;;0.52;0.52;;;0.60;99.90;;;;;;5050586;28;20444;-76
2022/11/26 05:03:59;;;;;;;0.70;0.45;;;0.70;99.90;;;;;;5046888;28;20855;-75
2022/11/26 05:06:28;;;;;;;1.20;0.75;;;0.70;99.90;;;;;;5045909;28;21218;-75
2022/11/26 05:08:55;;;;;;;0.40;0.40;;;0.70;99.90;;;;;;5050906;28;20464;-75
2022/11/26 05:11:25;;;;;;;0.90;0.90;;;0.70;99.90;;;;;;5042597;28;20435;-75
2022/11/26 05:13:52;;;;;;;0.60;0.60;;;0.70;99.90;;;;;;5040097;28;20425;-75
2022/11/26 05:16:19;;;;;;;3.15;0.60;;;0.70;99.90;;;;;;5044097;28;20425;-75
2022/11/26 05:18:46;;;;;;;0.60;0.60;;;0.70;99.90;;;;;;5047236;28;20436;-75
2022/11/26 05:21:12;;;;;;;0.35;0.35;;;0.80;99.90;;;;;;5043991;28;20908;-75
2022/11/26 05:23:39;;;;;;;0.50;0.50;;;0.80;99.90;;;;;;5046255;28;20512;-76
2022/11/26 05:26:06;;;;;;;0.47;0.43;;;0.60;99.90;;;;;;5045433;28;20992;-75
2022/11/26 05:28:33;;;;;;;0.38;0.38;;;0.50;99.90;;;;;;5041533;28;20439;-75
2022/11/26 05:31:02;;;;;;;0.43;0.43;;;0.30;99.90;;;;;;5042046;28;20433;-75
2022/11/26 05:33:29;;;;;;;0.57;0.57;;;0.30;99.90;;;;;;5038353;28;20436;-75
2022/11/26 05:35:59;;;;;;;0.60;0.60;;;0.40;99.90;;;;;;5041702;28;21030;-75
2022/11/26 05:38:25;;;;;;;0.50;0.50;;;0.30;99.90;;;;;;5052935;28;20493;-75
2022/11/26 05:40:52;;;;;;;0.30;0.30;;;0.20;99.90;;;;;;5052971;28;20429;-75
2022/11/26 05:43:19;;;;;;;1.40;0.90;;;0.10;99.90;;;;;;5042209;28;20451;-75
2022/11/26 05:45:46;;;;;;;0.47;0.47;;;0.10;99.90;;;;;;5039681;28;20435;-75
2022/11/26 05:48:13;;;;;;;3.80;1.00;;;0.10;99.90;;;;;;5037142;28;20510;-75
2022/11/26 05:50:43;;;;;;;0.73;0.73;;;0.10;99.90;;;;;;5045299;28;20438;-75
2022/11/26 05:53:09;;;;;;;1.13;1.05;;;0.10;99.90;;;;;;5042962;28;20429;-75
2022/11/26 05:55:37;;;;;;;0.73;0.65;;;0.10;99.90;;;;;;5045976;28;20502;-75
2022/11/26 05:58:03;;;;;;;0.30;0.30;;;0.00;99.90;;;;;;5040631;28;20443;-75
2022/11/26 06:00:30;;;;;;;0.90;0.43;;;0.00;99.90;;;;;;5041386;28;20469;-75
2022/11/26 06:02:57;;;;;;;0.15;0.15;;;0.00;99.90;;;;;;5042993;28;20512;-75
2022/11/26 06:05:24;;;;;;;1.10;0.77;;;0.10;99.90;;;;;;5027710;28;21283;-75
2022/11/26 06:07:51;;;;;;;0.40;0.40;;;0.10;99.90;;;;;;5039184;28;20424;-75
2022/11/26 06:10:18;;;;;;;2.00;0.90;;;0.00;99.90;;;;;;5050676;28;20432;-75
2022/11/26 06:12:45;;;;;;;1.25;1.15;;;-0.20;99.90;;;;;;5041882;28;20437;-75
2022/11/26 06:15:11;;;;;;;0.82;0.82;;;-0.30;99.90;;;;;;5039943;28;20433;-75
2022/11/26 06:17:41;;;;;;;2.45;0.88;;;-0.30;99.90;;;;;;5034008;28;20513;-75
2022/11/26 06:20:09;;;;;;;0.50;0.50;;;-0.40;99.90;;;;;;5039483;28;20435;-75
2022/11/26 06:22:40;;;;;;;0.77;0.63;;;-0.30;99.90;;;;;;5031808;28;21191;-75
2022/11/26 06:25:12;;;;;;;0.40;0.40;;;-0.30;99.90;;;;;;5031641;28;20452;-75
2022/11/26 06:27:41;;;;;;;0.63;0.38;;;-0.20;99.90;;;;;;5036181;28;20907;-75
2022/11/26 06:30:10;;;;;;;0.40;0.40;;;-0.20;99.90;;;;;;5045591;28;20428;-75
2022/11/26 06:32:37;;;;;;;5.97;0.95;;;-0.30;99.90;;;;;;5043234;28;20432;-75
2022/11/26 06:35:04;;;;;;;0.70;0.70;;;-0.30;99.90;;;;;;5042086;28;20934;-75
2022/11/26 06:37:31;;;;;;;0.50;0.50;;;-0.30;99.90;;;;;;5047177;28;20431;-75
2022/11/26 06:39:59;;;;;;;0.45;0.38;;;-0.20;99.90;;;;;;5038683;28;20439;-75
2022/11/26 06:42:26;;;;;;;0.40;0.40;;;-0.10;99.90;;;;;;5041414;28;21506;-75
2022/11/26 06:44:52;;;;;;;0.40;0.40;;;-0.20;99.90;;;;;;5045325;28;20443;-75
2022/11/26 06:47:25;;;;;;;0.40;0.40;;;-0.30;99.90;;;;;;5040052;28;20439;-75
2022/11/26 06:49:52;;;;;;;0.40;0.40;;;-0.30;99.90;;;;;;5039786;28;20546;-76
2022/11/26 06:52:19;;;;;;;0.33;0.33;;;-0.20;99.90;;;;;;5041116;28;20514;-75
2022/11/26 06:54:46;;;;;;;0.60;0.60;;;-0.20;99.90;;;;;;5039034;28;20439;-75
2022/11/26 06:57:12;;;;;;;0.30;0.30;;;-0.10;99.90;;;;;;5053581;28;20434;-75
2022/11/26 06:59:39;;;;;;;0.22;0.22;;;0.00;99.90;;;;;;5044875;28;20428;-75
2022/11/26 07:02:14;;;;;;;0.32;0.32;;;0.00;99.90;;;;;;5038879;28;20504;-75
2022/11/26 07:04:41;;;;;;;0.60;0.60;;;0.00;99.90;;;;;;5042665;28;20470;-75
2022/11/26 07:07:07;;;;;;;0.50;0.50;;;0.00;99.90;;;;;;5040125;28;20443;-75
2022/11/26 07:09:34;;;;;;;0.47;0.40;;;0.10;99.90;;;;;;5043522;28;20465;-75
2022/11/26 07:12:01;;;;;;;0.40;0.40;;;0.00;99.90;;;;;;5046712;28;20445;-75
2022/11/26 07:14:28;;;;;;;0.60;0.60;;;-0.10;99.90;;;;;;5049017;28;20440;-75
2022/11/26 07:16:54;;;;;;;0.55;0.40;;;-0.10;99.90;;;;;;5044658;28;20434;-75
2022/11/26 07:19:21;;;;;;;0.30;0.30;;;-0.10;99.90;;;;;;5047734;28;20425;-75
2022/11/26 07:21:50;;;;;;;0.50;0.50;;;-0.10;99.90;;;;;;5045090;28;20430;-75
2022/11/26 07:24:17;;;;;;;1.13;0.70;;;-0.10;99.90;;;;;;5051011;28;20432;-75
2022/11/26 07:26:56;;;;;;;0.25;0.25;;;0.10;99.90;;;;;;5045315;28;20466;-75
2022/11/26 07:29:23;;;;;;;0.30;0.30;;;0.30;99.90;;;;;;5052293;28;20433;-75
2022/11/26 07:31:49;;;;;;;0.32;0.32;;;0.40;99.90;;;;;;5044837;28;20516;-75
2022/11/26 07:34:26;;;;;;;0.40;0.40;;;0.50;99.90;;;;;;5052231;28;20433;-75
2022/11/26 07:36:53;;;;;;;0.60;0.60;;;0.60;99.90;;;;;;5049426;28;20440;-76
2022/11/26 07:39:23;;;;;;;0.30;0.30;;;0.70;99.90;;;;;;5043468;28;20439;-75
2022/11/26 07:41:50;;;;;;;0.40;0.40;;;0.80;99.90;;;;;;5046775;28;20477;-75
2022/11/26 07:44:18;;;;;;;0.60;0.60;;;0.90;99.90;;;;;;5048827;28;20440;-75
2022/11/26 07:46:47;;;;;;;0.80;0.40;;;0.90;99.90;;;;;;5051025;28;20433;-75
2022/11/26 07:49:16;;;;;;;2.10;0.50;;;1.00;99.90;;;;;;5040903;28;20451;-75
2022/11/26 07:51:43;;;;;;;0.40;0.30;;;1.20;99.90;;;;;;5043783;28;20435;-75
2022/11/26 07:54:10;;;;;;;1.20;0.40;;;1.40;99.90;;;;;;5041310;28;20457;-76
2022/11/26 07:56:37;;;;;;;0.10;0.10;;;1.70;99.90;;;;;;5046459;28;20815;-76
2022/11/26 07:59:04;;;;;;;0.30;0.30;;;1.90;99.90;;;;;;5038331;28;20483;-76
2022/11/26 08:01:35;;;;;;;0.30;0.30;;;2.20;99.90;;;;;;5050532;28;20516;-76
2022/11/26 08:04:04;;;;;;;1.40;0.57;;;2.40;99.90;;;;;;5040175;28;20927;-76
2022/11/26 08:06:32;;;;;;;0.20;0.20;;;2.50;99.90;;;;;;5048403;28;20432;-77
2022/11/26 08:09:01;;;;;;;0.45;0.45;;;2.70;99.90;;;;;;5044985;28;20441;-78
2022/11/26 08:11:30;;;;;;;0.50;0.40;;;2.80;99.90;;;;;;5042501;28;20435;-77
2022/11/26 08:14:09;;;;;;;0.45;0.45;;;3.00;99.90;;;;;;5044453;28;20545;-77
2022/11/26 08:16:36;;;;;;;0.40;0.40;;;3.20;99.90;;;;;;5045772;28;20433;-77
2022/11/26 08:19:06;;;;;;;0.38;0.38;;;3.50;99.90;;;;;;5048505;28;20517;-77
2022/11/26 08:21:34;;;;;;;0.20;0.20;;;3.70;99.90;;;;;;5042559;28;20432;-77
2022/11/26 08:24:02;;;;;;;0.35;0.35;;;3.90;99.90;;;;;;5048089;28;20440;-77
2022/11/26 08:26:29;;;;;;;0.40;0.40;;;4.10;99.90;;;;;;5042657;28;20460;-77
2022/11/26 08:29:04;;;;;;;0.30;0.30;;;4.30;99.90;;;;;;5050878;28;20464;-77
2022/11/26 08:31:31;;;;;;;0.38;0.32;;;4.50;99.90;;;;;;5032165;28;20849;-77
2022/11/26 08:33:59;;;;;;;0.57;0.50;;;4.70;99.90;;;;;;5035793;28;20463;-78
2022/11/26 08:36:27;;;;;;;0.45;0.45;;;4.80;99.90;;;;;;5049181;28;20438;-78
2022/11/26 08:38:54;;;;;;;0.70;0.70;;;4.70;99.90;;;;;;5057020;28;20455;-78
2022/11/26 08:41:22;;;;;;;0.60;0.60;;;4.70;99.90;;;;;;5041408;28;20425;-77
2022/11/26 08:43:49;;;;;;;2.40;0.60;;;4.90;99.90;;;;;;5041681;28;20876;-77
2022/11/26 08:46:32;;;;;;;0.43;0.43;;;5.10;99.90;;;;;;5037446;28;20733;-78
2022/11/26 08:48:59;;;;;;;1.20;0.80;;;5.30;99.90;;;;;;5045346;28;20454;-75
2022/11/26 08:51:26;;;;;;;0.65;0.65;;;5.40;99.90;;;;;;5043047;28;20830;-75
2022/11/26 08:53:53;;;;;;;1.00;0.77;;;5.70;99.90;;;;;;5038349;28;20509;-75
2022/11/26 08:56:20;;;;;;;0.67;0.67;;;5.80;99.90;;;;;;5038704;28;20422;-77
2022/11/26 08:58:47;;;;;;;0.73;0.68;;;5.70;99.90;;;;;;5039993;28;20442;-74
2022/11/26 09:01:26;;;;;;;1.10;0.80;;;5.90;99.90;;;;;;5044807;28;20494;-74
2022/11/26 09:03:56;;;;;;;0.60;0.60;;;5.80;99.90;;;;;;5041932;28;20985;-76
2022/11/26 09:06:26;;;;;;;0.80;0.80;;;5.70;99.90;;;;;;5041767;28;20985;-74
2022/11/26 09:09:11;;;;;;;0.63;0.63;;;5.60;99.90;;;;;;5042655;28;20515;-74
2022/11/26 09:11:43;;;;;;;0.35;0.35;;;5.80;99.90;;;;;;5040445;28;20429;-74
2022/11/26 09:14:11;;;;;;;3.88;0.60;;;6.10;99.90;;;;;;5041249;28;20428;-74
2022/11/26 09:16:42;;;;;;;0.52;0.52;;;6.10;99.90;;;;;;5043483;28;20617;-75
2022/11/26 09:19:14;;;;;;;0.50;0.50;;;6.50;99.90;;;;;;5043999;28;20425;-75
2022/11/26 09:21:40;;;;;;;0.60;0.60;;;6.50;99.90;;;;;;5041314;28;20429;-75
2022/11/26 09:24:07;;;;;;;0.52;0.52;;;6.50;99.90;;;;;;5040022;28;20429;-69
2022/11/26 09:26:34;;;;;;;0.52;0.52;;;6.90;99.90;;;;;;5043758;28;20427;-67
2022/11/26 09:29:01;;;;;;;0.80;0.80;;;7.20;99.90;;;;;;5046209;28;20452;-71
2022/11/26 09:31:29;;;;;;;2.00;0.63;;;7.50;99.90;;;;;;5046847;28;20989;-72
2022/11/26 09:33:57;;;;;;;0.47;0.47;;;7.90;99.90;;;;;;5040189;28;20443;-72
2022/11/26 09:36:25;;;;;;;0.50;0.47;;;8.20;99.90;;;;;;5044996;28;20433;-72
2022/11/26 09:38:55;;;;;;;0.50;0.50;;;8.30;99.90;;;;;;5037832;28;20464;-72
2022/11/26 09:41:41;;;;;;;0.80;0.80;;;8.40;99.90;;;;;;5044108;28;20973;-72
2022/11/26 09:44:39;;;;;;;0.75;0.73;;;8.60;99.90;;;;;;5052714;28;20429;-72
2022/11/26 09:47:25;;;;;;;0.45;0.40;;;8.80;99.90;;;;;;5033175;28;21679;-72
2022/11/26 09:50:16;;;;;;;0.50;0.50;;;9.00;99.90;;;;;;5044892;28;20433;-72
2022/11/26 09:52:52;;;;;;;0.68;0.68;;;9.10;99.90;;;;;;5037456;28;20480;-72
2022/11/26 09:55:26;;;;;;;0.40;0.40;;;9.10;99.90;;;;;;5041473;28;20436;-72
2022/11/26 09:58:17;;;;;;;0.70;0.70;;;9.40;99.90;;;;;;5044629;28;20433;-72
2022/11/26 10:00:53;;;;;;;1.00;0.83;;;9.20;99.90;;;;;;5038195;28;20429;-72
2022/11/26 10:03:29;;;;;;;1.70;0.90;;;9.00;99.90;;;;;;5033483;28;20512;-72
2022/11/26 10:06:17;;;;;;;1.88;0.82;;;9.00;99.90;;;;;;5049684;28;20437;-72
2022/11/26 10:09:01;;;;;;;2.30;0.70;;;8.90;99.90;;;;;;5037918;28;20435;-72
2022/11/26 10:11:51;;;;;;;0.70;0.70;;;8.80;99.90;;;;;;5041778;28;20463;-72
2022/11/26 10:14:42;;;;;;;0.50;0.50;;;8.80;99.90;;;;;;5041438;28;20436;-72
2022/11/26 10:17:28;;;;;;;0.33;0.33;;;8.40;99.90;;;;;;5038928;28;21377;-71
2022/11/26 10:20:22;;;;;;;0.90;0.82;;;8.10;99.90;;;;;;5044441;28;20436;-71
2022/11/26 10:23:11;;;;;;;0.60;0.60;;;8.20;1.00;;;;;;5040362;28;20939;-71
2022/11/26 10:25:51;;;;;;;2.15;0.77;;;8.50;99.90;;;;;;5040206;28;20435;-71
2022/11/26 10:28:26;;;;;;;0.90;0.90;;;8.60;99.90;;;;;;5042037;28;20438;-72
2022/11/26 10:30:59;;;;;;;1.38;1.10;;;8.80;99.90;;;;;;5045517;28;20451;-71
2022/11/26 10:33:58;;;;;;;0.65;0.65;;;9.10;1.00;;;;;;5039118;28;20425;-72
2022/11/26 10:36:38;;;;;;;0.50;0.50;;;9.30;99.90;;;;;;5037266;28;20439;-72
2022/11/26 10:39:06;;;;;;;0.75;0.75;;;9.90;99.90;;;;;;5044370;28;20520;-72
2022/11/26 10:41:35;;;;;;;0.70;0.60;;;10.60;99.90;;;;;;5041634;28;20424;-71
2022/11/26 10:44:35;;;;;;;0.40;0.40;;;11.20;99.90;;;;;;5044119;28;20429;-72
2022/11/26 10:47:21;;;;;;;1.80;0.68;;;11.70;99.90;;;;;;5041000;28;20437;-71
2022/11/26 10:49:50;;;;;;;0.60;0.60;;;12.00;99.90;;;;;;5042706;28;20441;-71
2022/11/26 10:52:29;;;;;;;3.13;0.80;;;12.00;99.90;;;;;;5042764;28;21280;-70
2022/11/26 10:55:27;;;;;;;1.10;0.73;;;11.70;99.90;;;;;;5050016;28;20433;-71
2022/11/26 10:58:04;;;;;;;0.70;0.70;;;11.50;99.90;;;;;;5038497;28;20449;-71
2022/11/26 11:00:37;;;;;;;0.50;0.50;;;11.30;99.90;;;;;;5056489;28;20449;-71
2022/11/26 11:03:17;;;;;;;0.50;0.50;;;11.30;99.90;;;;;;5067352;28;20940;-70
2022/11/26 11:06:19;;;;;;;0.43;0.43;;;10.90;99.90;;;;;;5066194;28;22570;-71
2022/11/26 11:08:49;;;;;;;0.63;0.63;;;10.20;99.90;;;;;;5043123;28;20431;-70
2022/11/26 11:11:26;;;;;;;1.80;0.80;;;9.90;99.90;;;;;;5062625;28;20431;-69
2022/11/26 11:13:53;;;;;;;0.47;0.47;;;9.50;99.90;;;;;;5067243;28;20903;-70
2022/11/26 11:16:38;;;;;;;0.80;0.80;;;9.00;99.90;;;;;;5064574;28;20438;-75
2022/11/26 11:19:22;;;;;;;0.45;0.45;;;8.40;99.90;;;;;;5064211;28;20439;-75
2022/11/26 11:21:51;;;;;;;1.10;0.70;;;8.10;99.90;;;;;;5066595;28;20435;-75
2022/11/26 11:24:27;;;;;;;1.20;0.70;;;8.00;99.90;;;;;;5061286;28;20450;-75
2022/11/26 11:26:59;;;;;;;0.57;0.57;;;7.70;99.90;;;;;;5045570;28;20439;-75
2022/11/26 11:29:32;;;;;;;2.00;0.50;;;7.60;99.90;;;;;;5060092;28;20425;-75
2022/11/26 11:32:03;;;;;;;0.52;0.50;;;7.50;99.90;;;;;;5061437;28;20810;-75
2022/11/26 11:34:36;;;;;;;0.85;0.85;;;7.50;99.90;;;;;;5048061;28;20439;-75
2022/11/26 11:37:20;;;;;;;0.38;0.38;;;7.40;99.90;;;;;;5040468;28;20421;-75
2022/11/26 11:40:16;;;;;;;0.60;0.40;;;7.50;99.90;;;;;;5042682;28;20429;-76
2022/11/26 11:42:50;;;;;;;0.50;0.50;;;7.50;99.90;;;;;;5043600;28;20431;-75
2022/11/26 11:45:24;;;;;;;0.38;0.38;;;7.50;99.90;;;;;;5046404;28;20490;-76
2022/11/26 11:47:56;;;;;;;0.50;0.50;;;7.70;99.90;;;;;;5044270;28;20973;-75
2022/11/26 11:50:30;;;;;;;3.90;0.70;;;7.80;99.90;;;;;;5048028;28;20436;-74
2022/11/26 11:53:20;;;;;;;0.75;0.75;;;7.80;99.90;;;;;;5060609;28;20433;-72
2022/11/26 11:56:15;;;;;;;0.77;0.40;;;7.70;99.90;;;;;;5047579;28;20438;-74
2022/11/26 11:58:59;;;;;;;0.80;0.80;;;7.80;99.90;;;;;;5039013;28;20436;-75
2022/11/26 12:01:52;;;;;;;0.57;0.50;;;7.90;99.90;;;;;;5043695;28;20446;-75
2022/11/26 12:04:25;;;;;;;0.70;0.70;;;7.90;99.90;;;;;;5040235;28;20490;-75
2022/11/26 12:07:02;;;;;;;0.65;0.65;;;7.80;99.90;;;;;;5045749;28;20937;-75
2022/11/26 12:09:47;;;;;;;0.50;0.50;;;7.90;99.90;;;;;;5042751;28;20451;-75
2022/11/26 12:12:35;;;;;;;1.40;0.70;;;7.90;99.90;;;;;;5037196;28;20440;-75
2022/11/26 12:15:14;;;;;;;0.60;0.52;;;7.80;99.90;;;;;;5036495;28;20431;-75
2022/11/26 12:17:54;;;;;;;1.35;0.65;;;7.60;99.90;;;;;;5040991;28;20435;-75
2022/11/26 12:20:35;;;;;;;1.30;0.93;;;7.50;99.90;;;;;;5040054;28;20516;-75
2022/11/26 12:23:04;;;;;;;0.32;0.32;;;7.60;99.90;;;;;;5044617;28;20434;-75
2022/11/26 12:25:39;;;;;;;1.00;0.45;;;7.70;99.90;;;;;;5043021;28;20431;-75
2022/11/26 12:28:14;;;;;;;0.60;0.50;;;7.80;99.90;;;;;;5044535;28;20432;-75
2022/11/26 12:31:14;;;;;;;0.80;0.75;;;7.70;99.90;;;;;;5044539;28;20429;-75
2022/11/26 12:33:48;;;;;;;0.40;0.40;;;7.70;99.90;;;;;;5040419;28;20523;-75
2022/11/26 12:36:34;;;;;;;1.40;0.50;;;7.60;99.90;;;;;;5043974;28;20433;-75
2022/11/26 12:39:16;;;;;;;0.40;0.40;;;7.50;99.90;;;;;;5033287;28;20521;-75
2022/11/26 12:41:50;;;;;;;0.50;0.50;;;7.50;99.90;;;;;;5034091;28;20434;-75
2022/11/26 12:44:21;;;;;;;0.60;0.60;;;7.40;99.90;;;;;;5041539;28;20438;-77
2022/11/26 12:46:59;;;;;;;2.75;0.45;;;7.20;99.90;;;;;;5041472;28;20435;-76
2022/11/26 12:49:51;;;;;;;1.10;1.00;;;7.10;99.90;;;;;;5041425;28;20513;-76
2022/11/26 12:52:24;;;;;;;0.80;0.80;;;7.10;99.90;;;;;;5070905;28;20431;-75
2022/11/26 12:55:02;;;;;;;0.52;0.52;;;6.90;99.90;;;;;;5036479;28;20447;-75
2022/11/26 12:57:53;;;;;;;0.60;0.60;;;6.90;99.90;;;;;;5036366;28;20449;-75
2022/11/26 13:00:25;;;;;;;0.47;0.47;;;6.90;99.90;;;;;;5040487;28;20449;-75
2022/11/26 13:02:58;;;;;;;1.10;0.50;;;6.90;99.90;;;;;;5039307;28;20555;-77
2022/11/26 13:05:41;;;;;;;0.55;0.55;;;6.90;99.90;;;;;;5044899;28;20437;-75
2022/11/26 13:08:36;;;;;;;0.77;0.77;;;6.80;99.90;;;;;;5043214;28;20468;-75
2022/11/26 13:11:27;;;;;;;2.05;0.43;;;6.70;99.90;;;;;;5044227;28;20433;-75
2022/11/26 13:14:24;;;;;;;0.82;0.70;;;6.70;99.90;;;;;;5037369;28;20431;-75
2022/11/26 13:17:03;;;;;;;0.45;0.45;;;6.80;99.90;;;;;;5043106;28;20433;-76
2022/11/26 13:19:59;;;;;;;0.65;0.65;;;6.80;99.90;;;;;;5040276;28;20429;-75
2022/11/26 13:22:34;;;;;;;0.80;0.80;;;6.80;99.90;;;;;;5045010;28;20421;-76
2022/11/26 13:25:03;;;;;;;0.38;0.38;;;6.80;99.90;;;;;;5039109;28;20425;-75